Nord Emperor — 3FXC7 — position and weather

sailwx.info

Track history (hours):
 
Tides and Currents Weather Stations Pressure Air Temp Water Temp Dewpoint Dewpoint Depression Visibility Wind Speed Wind Dir Waves Ship Positions

Nord Emperor

Last reported at 2018-Jun-20 06:56 UTC. Time now 2018-Jun-21 02:32 UTC.
Position N 49°43' W 005°40'.

Length 190 m; draft 6.8 m.

Type: Cargo ship. MMSI: 357960000.

Date/timePositionNaut miles runAvg speedWind from/ knotsBaromVisibWave heightAir tempDewpointWater temp
2018-Jun-20 06:56N 49°43' W 005°40'511.5
2018-Jun-20 06:30N 49°43' W 005°32'1111.7
2018-Jun-20 05:35N 49°43' W 005°16'112.1
2018-Jun-20 05:29N 49°43' W 005°14'1612.1
2018-Jun-20 04:12N 49°44' W 004°50'312.5
2018-Jun-20 03:59N 49°45' W 004°46'612.6
2018-Jun-20 03:30N 49°46' W 004°37'612.6
2018-Jun-20 03:00N 49°47' W 004°27'612.3
2018-Jun-20 02:30N 49°48' W 004°18'612.3
2018-Jun-20 02:00N 49°49' W 004°08'611.9
2018-Jun-20 01:29N 49°50' W 003°59'611.7
2018-Jun-20 00:59N 49°51' W 003°50'611.5
2018-Jun-20 00:30N 49°52' W 003°41'611.3
2018-Jun-20 00:00N 49°53' W 003°33'511.1
2018-Jun-19 23:30N 49°54' W 003°24'510.9
2018-Jun-19 23:00N 49°56' W 003°16'611.1
2018-Jun-19 22:30N 49°57' W 003°08'611.2
2018-Jun-19 22:00N 49°59' W 002°59'611.6
2018-Jun-19 21:30N 50°00' W 002°51'612.3
2018-Jun-19 21:00N 50°02' W 002°41'712.9
2018-Jun-19 20:30N 50°03' W 002°32'712.5
2018-Jun-19 19:56N 50°09' W 002°25'613.0
2018-Jun-19 19:30N 50°14' W 002°22'612.9
2018-Jun-19 19:00N 50°21' W 002°21'713.0
2018-Jun-19 18:30N 50°27' W 002°20'612.0
2018-Jun-19 18:00N 50°33' W 002°21'4 7.4
2018-Jun-19 17:30N 50°36' W 002°25'0 0.1
2018-Jun-19 16:58N 50°36' W 002°25'0 0.0
2018-Jun-19 16:28N 50°36' W 002°25'0 0.0
2018-Jun-19 15:58N 50°36' W 002°25'0 0.1
2018-Jun-19 15:28N 50°36' W 002°25'0 0.1
2018-Jun-19 14:58N 50°36' W 002°25'0 0.0
2018-Jun-19 14:28N 50°36' W 002°25'0 0.1
2018-Jun-19 13:55N 50°36' W 002°25'0 0.0
2018-Jun-19 13:28N 50°36' W 002°25'0 0.0
2018-Jun-19 12:58N 50°36' W 002°25'0 0.0
2018-Jun-19 12:28N 50°36' W 002°25'0 0.0
2018-Jun-19 11:58N 50°36' W 002°25'0 0.0
2018-Jun-19 11:22N 50°36' W 002°25'0 0.0
2018-Jun-19 10:58N 50°36' W 002°25'0 0.0
2018-Jun-19 10:28N 50°36' W 002°25'0 0.1
2018-Jun-19 09:58N 50°36' W 002°25'0 0.0
2018-Jun-19 09:25N 50°36' W 002°25'0 0.0
2018-Jun-19 08:58N 50°36' W 002°25'0 0.4
2018-Jun-19 08:30N 50°36' W 002°24'2 3.7
2018-Jun-19 08:01N 50°35' W 002°22'2 3.4
2018-Jun-19 07:28N 50°33' W 002°21'14 8.7
2018-Jun-19 05:52N 50°19' W 002°21'2 4.6
2018-Jun-19 05:30N 50°18' W 002°20'710.5
2018-Jun-19 04:52N 50°11' W 002°21'411.1
2018-Jun-19 04:30N 50°07' W 002°21'611.2
2018-Jun-19 04:00N 50°01' W 002°22'611.2
2018-Jun-19 03:28N 49°55' W 002°22'610.8
2018-Jun-19 02:57N 49°53' W 002°31'612.0
2018-Jun-19 02:29N 49°52' W 002°39'812.3
2018-Jun-19 01:53N 49°50' W 002°50'812.7
2018-Jun-19 01:15N 49°46' W 003°01'312.8
2018-Jun-19 01:00N 49°44' W 003°05'912.8
2018-Jun-19 00:20N 49°40' W 003°17'613.2
2018-Jun-18 23:55N 49°38' W 003°24'913.1
2018-Jun-18 23:13N 49°33' W 003°36'1113.4
2018-Jun-18 22:23N 49°27' W 003°51'1113.5
2018-Jun-18 21:35N 49°22' W 004°06'313.6
2018-Jun-18 21:21N 49°21' W 004°10'613.6
2018-Jun-18 20:53N 49°17' W 004°18'613.9
2018-Jun-18 20:25N 49°14' W 004°27'613.7
2018-Jun-18 20:01N 49°11' W 004°34'713.8
2018-Jun-18 19:29N 49°08' W 004°44'613.5
2018-Jun-18 19:00N 49°05' W 004°53'713.7
2018-Jun-18 18:30N 49°01' W 005°02'713.3
2018-Jun-18 17:59N 48°58' W 005°11'713.9
2018-Jun-18 17:29N 48°54' W 005°20'714.1
2018-Jun-18 16:58N 48°50' W 005°29'613.5
2018-Jun-18 16:30N 48°46' W 005°37'2313.0
2018-Jun-18 14:46N 48°25' W 005°49'712.4
2018-Jun-18 14:12N 48°19' W 005°52'312.1
2018-Jun-18 13:57N 48°16' W 005°54'811.8
2018-Jun-18 13:18N 48°08' W 005°57'1911.1
2018-Jun-18 11:35N 47°49' W 005°60'410.7
2018-Jun-18 11:13N 47°45' W 005°60'310.6
2018-Jun-18 10:55N 47°42' W 005°60'510.7
2018-Jun-18 10:28N 47°37' W 005°60'611.0
2018-Jun-18 09:57N 47°32' W 005°60'511.0
2018-Jun-18 09:30N 47°27' W 006°00'510.8
2018-Jun-18 09:00N 47°22' W 006°00'510.9
2018-Jun-18 08:30N 47°16' W 005°60'812.1
2018-Jun-18 07:52N 47°08' W 005°60'512.6
2018-Jun-18 07:30N 47°04' W 006°00'812.7
2018-Jun-18 06:53N 46°56' W 006°00'712.0
2018-Jun-18 06:16N 46°49' W 005°60'311.9
2018-Jun-18 06:00N 46°45' W 005°60'611.7
2018-Jun-18 05:30N 46°40' W 006°00'711.8
2018-Jun-18 04:56N 46°33' W 006°00'711.8
2018-Jun-18 04:21N 46°26' W 005°60'712.0
2018-Jun-18 03:48N 46°19' W 006°00'612.1
2018-Jun-18 03:19N 46°14' W 005°60'412.0
2018-Jun-18 03:00N 46°10' W 005°60'10511.9
2018-Jun-17 18:12N 44°25' W 005°60'512.1
2018-Jun-17 17:49N 44°20' W 005°60'412.0
2018-Jun-17 17:29N 44°16' W 005°60'612.0
2018-Jun-17 17:00N 44°11' W 005°59'812.1
2018-Jun-17 16:20N 44°03' W 005°59'611.9
2018-Jun-17 15:50N 43°57' W 005°59'411.8
2018-Jun-17 15:28N 43°52' W 005°59'612.0
2018-Jun-17 15:00N 43°47' W 005°58'611.5
2018-Jun-17 14:30N 43°41' W 005°58'510.3
2018-Jun-17 14:00N 43°36' W 005°58'  
Track history (hours):
 
Tides and Currents Weather Stations Pressure Air Temp Water Temp Dewpoint Dewpoint Depression Visibility Wind Speed Wind Dir Waves Ship Positions

Nord Emperor

Last reported at 2018-Jun-20 06:56 UTC. Time now 2018-Jun-21 02:32 UTC.
Position N 49°43' W 005°40'.

Length 190 m; draft 6.8 m.

Type: Cargo ship. MMSI: 357960000.

Date/timePositionNaut miles runAvg speedWind from/ knotsBaromVisibWave heightAir tempDewpointWater temp
2018-Jun-20 06:56N 49°43' W 005°40'511.5
2018-Jun-20 06:30N 49°43' W 005°32'1111.7
2018-Jun-20 05:35N 49°43' W 005°16'112.1
2018-Jun-20 05:29N 49°43' W 005°14'1612.1
2018-Jun-20 04:12N 49°44' W 004°50'312.5
2018-Jun-20 03:59N 49°45' W 004°46'612.6
2018-Jun-20 03:30N 49°46' W 004°37'612.6
2018-Jun-20 03:00N 49°47' W 004°27'612.3
2018-Jun-20 02:30N 49°48' W 004°18'612.3
2018-Jun-20 02:00N 49°49' W 004°08'611.9
2018-Jun-20 01:29N 49°50' W 003°59'611.7
2018-Jun-20 00:59N 49°51' W 003°50'611.5
2018-Jun-20 00:30N 49°52' W 003°41'611.3
2018-Jun-20 00:00N 49°53' W 003°33'511.1
2018-Jun-19 23:30N 49°54' W 003°24'510.9
2018-Jun-19 23:00N 49°56' W 003°16'611.1
2018-Jun-19 22:30N 49°57' W 003°08'611.2
2018-Jun-19 22:00N 49°59' W 002°59'611.6
2018-Jun-19 21:30N 50°00' W 002°51'612.3
2018-Jun-19 21:00N 50°02' W 002°41'712.9
2018-Jun-19 20:30N 50°03' W 002°32'712.5
2018-Jun-19 19:56N 50°09' W 002°25'613.0
2018-Jun-19 19:30N 50°14' W 002°22'612.9
2018-Jun-19 19:00N 50°21' W 002°21'713.0
2018-Jun-19 18:30N 50°27' W 002°20'612.0
2018-Jun-19 18:00N 50°33' W 002°21'4 7.4
2018-Jun-19 17:30N 50°36' W 002°25'0 0.1
2018-Jun-19 16:58N 50°36' W 002°25'0 0.0
2018-Jun-19 16:28N 50°36' W 002°25'0 0.0
2018-Jun-19 15:58N 50°36' W 002°25'0 0.1
2018-Jun-19 15:28N 50°36' W 002°25'0 0.1
2018-Jun-19 14:58N 50°36' W 002°25'0 0.0
2018-Jun-19 14:28N 50°36' W 002°25'0 0.1
2018-Jun-19 13:55N 50°36' W 002°25'0 0.0
2018-Jun-19 13:28N 50°36' W 002°25'0 0.0
2018-Jun-19 12:58N 50°36' W 002°25'0 0.0
2018-Jun-19 12:28N 50°36' W 002°25'0 0.0
2018-Jun-19 11:58N 50°36' W 002°25'0 0.0
2018-Jun-19 11:22N 50°36' W 002°25'0 0.0
2018-Jun-19 10:58N 50°36' W 002°25'0 0.0
2018-Jun-19 10:28N 50°36' W 002°25'0 0.1
2018-Jun-19 09:58N 50°36' W 002°25'0 0.0
2018-Jun-19 09:25N 50°36' W 002°25'0 0.0
2018-Jun-19 08:58N 50°36' W 002°25'0 0.4
2018-Jun-19 08:30N 50°36' W 002°24'2 3.7
2018-Jun-19 08:01N 50°35' W 002°22'2 3.4
2018-Jun-19 07:28N 50°33' W 002°21'14 8.7
2018-Jun-19 05:52N 50°19' W 002°21'2 4.6
2018-Jun-19 05:30N 50°18' W 002°20'710.5
2018-Jun-19 04:52N 50°11' W 002°21'411.1
2018-Jun-19 04:30N 50°07' W 002°21'611.2
2018-Jun-19 04:00N 50°01' W 002°22'611.2
2018-Jun-19 03:28N 49°55' W 002°22'610.8
2018-Jun-19 02:57N 49°53' W 002°31'612.0
2018-Jun-19 02:29N 49°52' W 002°39'812.3
2018-Jun-19 01:53N 49°50' W 002°50'812.7
2018-Jun-19 01:15N 49°46' W 003°01'312.8
2018-Jun-19 01:00N 49°44' W 003°05'912.8
2018-Jun-19 00:20N 49°40' W 003°17'613.2
2018-Jun-18 23:55N 49°38' W 003°24'913.1
2018-Jun-18 23:13N 49°33' W 003°36'1113.4
2018-Jun-18 22:23N 49°27' W 003°51'1113.5
2018-Jun-18 21:35N 49°22' W 004°06'313.6
2018-Jun-18 21:21N 49°21' W 004°10'613.6
2018-Jun-18 20:53N 49°17' W 004°18'613.9
2018-Jun-18 20:25N 49°14' W 004°27'613.7
2018-Jun-18 20:01N 49°11' W 004°34'713.8
2018-Jun-18 19:29N 49°08' W 004°44'613.5
2018-Jun-18 19:00N 49°05' W 004°53'713.7
2018-Jun-18 18:30N 49°01' W 005°02'713.3
2018-Jun-18 17:59N 48°58' W 005°11'713.9
2018-Jun-18 17:29N 48°54' W 005°20'714.1
2018-Jun-18 16:58N 48°50' W 005°29'613.5
2018-Jun-18 16:30N 48°46' W 005°37'2313.0
2018-Jun-18 14:46N 48°25' W 005°49'712.4
2018-Jun-18 14:12N 48°19' W 005°52'312.1
2018-Jun-18 13:57N 48°16' W 005°54'811.8
2018-Jun-18 13:18N 48°08' W 005°57'1911.1
2018-Jun-18 11:35N 47°49' W 005°60'410.7
2018-Jun-18 11:13N 47°45' W 005°60'310.6
2018-Jun-18 10:55N 47°42' W 005°60'510.7
2018-Jun-18 10:28N 47°37' W 005°60'611.0
2018-Jun-18 09:57N 47°32' W 005°60'511.0
2018-Jun-18 09:30N 47°27' W 006°00'510.8
2018-Jun-18 09:00N 47°22' W 006°00'510.9
2018-Jun-18 08:30N 47°16' W 005°60'812.1
2018-Jun-18 07:52N 47°08' W 005°60'512.6
2018-Jun-18 07:30N 47°04' W 006°00'812.7
2018-Jun-18 06:53N 46°56' W 006°00'712.0
2018-Jun-18 06:16N 46°49' W 005°60'311.9
2018-Jun-18 06:00N 46°45' W 005°60'611.7
2018-Jun-18 05:30N 46°40' W 006°00'711.8
2018-Jun-18 04:56N 46°33' W 006°00'711.8
2018-Jun-18 04:21N 46°26' W 005°60'712.0
2018-Jun-18 03:48N 46°19' W 006°00'612.1
2018-Jun-18 03:19N 46°14' W 005°60'412.0
2018-Jun-18 03:00N 46°10' W 005°60'10511.9
2018-Jun-17 18:12N 44°25' W 005°60'512.1
2018-Jun-17 17:49N 44°20' W 005°60'412.0
2018-Jun-17 17:29N 44°16' W 005°60'612.0
2018-Jun-17 17:00N 44°11' W 005°59'812.1
2018-Jun-17 16:20N 44°03' W 005°59'611.9
2018-Jun-17 15:50N 43°57' W 005°59'411.8
2018-Jun-17 15:28N 43°52' W 005°59'612.0
2018-Jun-17 15:00N 43°47' W 005°58'611.5
2018-Jun-17 14:30N 43°41' W 005°58'510.3
2018-Jun-17 14:00N 43°36' W 005°58'  

Dump ship's entire track history